Latest Weather Observations for Campania

IDT60801

Issued at 10:31 pm EST Wednesday 1 July 2015 (issued every 30 minutes, with the page automatically refreshed every 10 minutes)

About weather observations | Map of weather stations | Latest weather observations for TAS | Other Formats
Station Details ID: 094212 Name: CAMPANIA (KINCORA) Lat: -42.69 Lon: 147.43 Height: 45.0 m
Data from the previous 72 hours. | See also: Recent months at Campania
Date/Time
EST
Temp
°C
App
Temp
°C
Dew
Point
Rel
Hum
%
Delta-T
°C
Wind Press
QNH
hPa
Press
MSL
hPa
Rain
since 9 am
mm
Dir
 
Spd
km/h
Gust
km/h
Spd
kts
Gust
kts
01/10:30pm 8.2 2.5 2.9 69 2.2 WNW 22 43 12 23 - - 1.6
01/10:00pm 7.0 3.3 2.5 73 1.9 NNW 11 19 6 10 - - 1.6
01/09:30pm 8.1 2.4 2.6 68 2.3 NW 22 33 12 18 - - 1.6
01/09:00pm 8.0 2.8 3.8 75 1.8 W 20 39 11 21 - - 1.6
01/08:30pm 8.5 2.0 4.5 76 1.8 W 28 44 15 24 - - 1.2
01/08:23pm 8.8 1.5 4.4 74 1.9 W 32 52 17 28 - - 1.2
01/08:06pm 10.9 2.1 5.4 69 2.5 WSW 41 67 22 36 - - 0.2
01/08:00pm 12.6 7.8 4.6 58 3.7 WNW 19 30 10 16 - - 0.0
01/07:30pm 12.7 7.1 3.4 53 4.2 NNW 22 35 12 19 - - 0.0
01/07:00pm 12.1 8.2 3.3 55 3.9 NNW 13 30 7 16 - - 0.0
01/06:30pm 12.5 4.8 3.5 54 4.0 NNW 33 56 18 30 - - 0.0
01/06:00pm 12.4 4.9 3.4 54 4.0 NNW 32 56 17 30 - - 0.0
01/05:30pm 12.9 4.8 3.0 51 4.4 NNW 35 54 19 29 - - 0.0
01/05:25pm 12.9 5.4 3.3 52 4.3 NNW 32 50 17 27 - - 0.0
01/05:00pm 12.7 6.4 3.6 54 4.1 N 26 37 14 20 - - 0.0
01/04:34pm 12.9 5.4 3.6 53 4.2 NNW 32 50 17 27 - - 0.0
01/04:30pm 12.7 6.0 3.6 54 4.1 NNW 28 37 15 20 - - 0.0
01/04:00pm 12.9 5.0 4.1 55 4.0 NNW 35 46 19 25 - - 0.0
01/03:31pm 13.0 6.5 4.9 58 3.7 NW 28 46 15 25 - - 0.0
01/03:30pm 13.1 7.0 5.0 58 3.8 NW 26 46 14 25 - - 0.0
01/03:16pm 13.2 6.4 5.1 58 3.8 NNW 30 48 16 26 - - 0.0
01/03:00pm 12.5 6.6 5.7 63 3.2 WNW 26 41 14 22 - - 0.0
01/02:30pm 13.8 7.2 4.4 53 4.3 NW 28 50 15 27 - - 0.0
01/02:29pm 13.9 7.3 4.2 52 4.4 NW 28 50 15 27 - - 0.0
01/02:00pm 12.9 7.5 4.3 56 3.9 N 22 30 12 16 - - 0.0
01/01:30pm 12.6 7.2 4.3 57 3.8 N 22 39 12 21 - - 0.0
01/01:00pm 13.3 8.2 4.2 54 4.2 N 20 32 11 17 - - 0.0
01/12:30pm 13.3 7.4 3.9 53 4.3 NNW 24 39 13 21 - - 0.0
01/12:00pm 13.1 6.5 4.0 54 4.1 NNW 28 39 15 21 - - 0.0
01/11:30am 12.2 5.6 4.4 59 3.5 N 28 33 15 18 - - 0.0
01/11:00am 11.6 4.9 3.9 59 3.4 N 28 35 15 19 - - 0.0
01/10:30am 10.5 3.4 3.5 62 3.1 N 30 35 16 19 - - 0.0
01/10:00am 9.1 3.1 3.5 68 2.4 NNE 24 32 13 17 - - 0.0
01/09:30am 8.5 3.2 3.1 69 2.3 NNE 20 28 11 15 - - 0.0
01/09:00am 7.9 3.6 3.0 71 2.1 NNW 15 26 8 14 - - 0.0
01/08:30am 8.0 2.8 3.3 72 2.0 N 20 32 11 17 - - 0.0
01/08:00am 5.2 1.2 2.6 83 1.1 NW 13 20 7 11 - - 0.0
01/07:30am 2.6 -0.4 1.1 90 0.6 NNE 6 9 3 5 - - 0.0
01/07:00am 2.3 -0.3 0.7 89 0.6 WSW 4 7 2 4 - - 0.0
01/06:30am 0.9 -1.9 -0.5 90 0.5 W 4 7 2 4 - - 0.0
01/06:00am 1.9 -1.2 0.3 89 0.6 NW 6 9 3 5 - - 0.0
01/05:30am 2.2 -1.1 0.4 88 0.7 NNW 7 9 4 5 - - 0.0
01/05:00am 4.7 0.8 1.4 79 1.3 N 11 19 6 10 - - 0.0
01/04:30am 1.9 -1.4 0.3 89 0.6 NW 7 9 4 5 - - 0.0
01/04:00am 2.0 -1.7 -0.2 85 0.8 N 9 13 5 7 - - 0.0
01/03:30am 4.8 0.7 2.0 82 1.1 N 13 17 7 9 - - 0.0
01/03:00am 2.9 -0.7 0.8 86 0.8 NNW 9 13 5 7 - - 0.0
01/02:30am 3.8 0.3 1.2 83 1.0 N 9 11 5 6 - - 0.0
01/02:00am 3.3 0.2 1.5 88 0.7 N 7 11 4 6 - - 0.0
01/01:30am 2.4 -1.2 0.5 87 0.7 NNW 9 11 5 6 - - 0.0
01/01:00am 2.4 -0.3 0.3 86 0.8 WNW 4 7 2 4 - - 0.0
01/12:30am 5.2 0.4 2.7 84 1.0 NNE 17 20 9 11 - - 0.0
01/12:00am 3.6 -0.2 1.8 88 0.7 N 11 13 6 7 - - 0.0
 
Date/Time
EST
Temp
°C
App
Temp
°C
Dew
Point
Rel
Hum
%
Delta-T
°C
Wind Press
QNH
hPa
Press
MSL
hPa
Rain
since 9 am
mm
Dir
 
Spd
km/h
Gust
km/h
Spd
kts
Gust
kts
30/11:30pm 4.8 0.8 2.8 87 0.8 NNE 13 20 7 11 - - 0.0
30/11:00pm 3.5 0.0 1.5 87 0.8 N 9 15 5 8 - - 0.0
30/10:30pm 3.6 -0.2 2.0 89 0.6 N 11 15 6 8 - - 0.0
30/10:00pm 3.1 0.0 1.6 90 0.6 NNE 7 13 4 7 - - 0.0
30/09:30pm 4.0 1.0 2.2 88 0.7 NNE 7 9 4 5 - - 0.0
30/09:00pm 4.9 1.3 2.8 86 0.9 N 11 15 6 8 - - 0.0
30/08:30pm 3.9 0.2 2.1 88 0.7 NNW 11 15 6 8 - - 0.0
30/08:00pm 5.9 2.0 3.2 83 1.1 N 13 17 7 9 - - 0.0
30/07:30pm 5.0 2.7 2.9 86 0.9 N 4 6 2 3 - - 0.0
30/07:00pm 5.8 3.2 3.1 83 1.1 NNW 6 7 3 4 - - 0.0
30/06:30pm 6.6 3.6 3.9 83 1.2 NW 9 11 5 6 - - 0.0
30/06:00pm 7.0 4.0 4.1 82 1.2 NW 9 11 5 6 - - 0.0
30/05:30pm 6.9 5.6 4.0 82 1.2 CALM 0 0 0 0 - - 0.0
30/05:00pm 8.2 5.4 5.0 80 1.4 W 9 11 5 6 - - 0.0
30/04:30pm 11.3 9.0 4.7 64 3.0 W 6 7 3 4 - - 0.0
30/04:00pm 12.3 9.2 5.5 63 3.2 NNW 11 13 6 7 - - 0.0
30/03:30pm 13.0 10.3 5.4 60 3.6 NNW 9 11 5 6 - - 0.0
30/03:00pm 13.4 10.6 5.3 58 3.8 NW 9 13 5 7 - - 0.0
30/02:30pm 13.4 9.4 5.1 57 3.9 WNW 15 20 8 11 - - 0.0
30/02:00pm 14.0 10.4 5.1 55 4.2 W 13 20 7 11 - - 0.0
30/01:30pm 14.1 11.0 5.5 56 4.1 W 11 20 6 11 - - 0.0
30/01:00pm 13.8 10.3 5.4 57 4.0 NW 13 19 7 10 - - 0.0
30/12:30pm 13.6 10.4 5.0 56 4.0 WNW 11 19 6 10 - - 0.0
30/12:00pm 13.4 10.1 4.8 56 4.0 NW 11 19 6 10 - - 0.0
30/11:30am 13.0 9.4 4.9 58 3.7 NNW 13 19 7 10 - - 0.0
30/11:00am 12.4 10.1 4.6 59 3.6 NE 6 11 3 6 - - 0.0
30/10:30am 11.1 7.4 4.3 63 3.1 NNE 13 15 7 8 - - 0.0
30/10:00am 9.5 5.7 3.7 67 2.5 NNE 13 15 7 8 - - 0.0
30/09:30am 8.4 4.9 3.3 70 2.2 N 11 13 6 7 - - 0.0
30/09:00am 6.4 2.8 2.7 77 1.5 N 11 13 6 7 - - 0.0
30/08:30am 4.9 1.8 1.4 78 1.4 N 7 9 4 5 - - 0.0
30/08:00am 4.1 0.1 0.8 79 1.3 NNW 11 15 6 8 - - 0.0
30/07:30am 4.5 0.6 1.4 80 1.2 N 11 15 6 8 - - 0.0
30/07:00am 4.6 0.4 1.5 80 1.2 NNE 13 17 7 9 - - 0.0
30/06:30am 4.1 -0.5 1.5 83 1.0 N 15 19 8 10 - - 0.0
30/06:00am 3.9 -0.4 1.3 83 1.0 NNE 13 15 7 8 - - 0.0
30/05:30am 4.0 0.1 1.2 82 1.1 N 11 15 6 8 - - 0.0
30/05:00am 5.8 2.5 2.3 78 1.4 NNE 9 15 5 8 - - 0.0
30/04:30am 5.1 1.3 1.8 79 1.3 N 11 13 6 7 - - 0.0
30/04:00am 5.1 1.8 2.5 83 1.1 NNE 9 13 5 7 - - 0.0
30/03:30am 4.0 1.0 1.7 85 0.9 N 7 11 4 6 - - 0.0
30/03:00am 3.7 0.6 1.6 86 0.8 N 7 9 4 5 - - 0.0
30/02:30am 4.1 0.7 2.0 86 0.8 N 9 13 5 7 - - 0.0
30/02:00am 4.5 1.6 1.7 82 1.1 N 6 9 3 5 - - 0.0
30/01:30am 6.3 3.1 2.8 78 1.5 NNE 9 13 5 7 - - 0.0
30/01:00am 8.5 4.7 4.1 74 1.9 NNW 13 19 7 10 - - 0.0
30/12:30am 6.3 4.3 2.2 75 1.7 NNE 2 7 1 4 - - 0.0
30/12:00am 7.2 4.9 2.5 72 2.0 E 4 11 2 6 - - 0.0
 
Date/Time
EST
Temp
°C
App
Temp
°C
Dew
Point
Rel
Hum
%
Delta-T
°C
Wind Press
QNH
hPa
Press
MSL
hPa
Rain
since 9 am
mm
Dir
 
Spd
km/h
Gust
km/h
Spd
kts
Gust
kts
29/11:30pm 8.2 5.3 2.4 67 2.4 NE 7 9 4 5 - - 0.0
29/11:00pm 10.0 5.0 3.7 65 2.8 NNW 19 24 10 13 - - 0.0
29/10:30pm 9.1 6.3 3.1 66 2.6 N 7 11 4 6 - - 0.0
29/10:00pm 9.9 5.9 3.0 62 3.0 N 13 19 7 10 - - 0.0
29/09:30pm 10.9 5.4 3.9 62 3.1 NNW 22 30 12 16 - - 0.0
29/09:00pm 10.8 5.9 4.0 63 3.0 N 19 26 10 14 - - 0.0
29/08:30pm 11.0 7.6 4.2 63 3.0 N 11 19 6 10 - - 0.0
29/08:00pm 11.1 7.8 4.3 63 3.1 NNW 11 20 6 11 - - 0.0
29/07:30pm 11.2 7.1 4.2 62 3.1 N 15 24 8 13 - - 0.0
29/07:00pm 11.2 7.5 4.2 62 3.1 N 13 17 7 9 - - 0.0
29/06:30pm 12.0 7.5 4.2 59 3.5 NNW 17 28 9 15 - - 0.0
29/06:00pm 12.7 7.7 4.7 58 3.7 NW 20 32 11 17 - - 0.0
29/05:30pm 13.0 7.2 4.4 56 3.9 NW 24 35 13 19 - - 0.0
29/05:00pm 12.9 7.9 4.6 57 3.8 NW 20 30 11 16 - - 0.0
29/04:30pm 13.6 8.6 4.7 55 4.1 WNW 20 30 11 16 - - 0.0
29/04:00pm 14.8 10.1 5.1 52 4.6 WNW 19 32 10 17 - - 0.0
29/03:30pm 15.3 10.0 5.2 51 4.8 WNW 22 32 12 17 - - 0.0
29/03:00pm 15.6 10.9 5.2 50 4.9 WNW 19 24 10 13 - - 0.0
29/02:30pm 15.8 10.9 5.1 49 5.1 WNW 20 30 11 16 - - 0.0
29/02:00pm 16.3 12.0 5.3 48 5.3 WNW 17 24 9 13 - - 0.0
29/01:30pm 15.8 10.1 5.1 49 5.1 NW 24 35 13 19 - - 0.0
29/01:00pm 15.9 11.2 5.2 49 5.1 NW 19 26 10 14 - - 0.0
29/12:30pm 15.6 11.3 5.2 50 4.9 WNW 17 26 9 14 - - 0.0
29/12:00pm 15.4 11.9 5.3 51 4.8 WNW 13 20 7 11 - - 0.0
29/11:30am 15.1 10.9 5.9 54 4.4 NW 17 24 9 13 - - 0.0
29/11:00am 14.6 10.3 5.1 53 4.5 NW 17 28 9 15 - - 0.0
29/10:30am 14.2 9.3 5.3 55 4.2 NW 20 26 11 14 - - 0.0
29/10:00am 13.9 8.3 5.3 56 4.0 NW 24 32 13 17 - - 0.0
29/09:30am 13.1 6.0 5.3 59 3.6 WNW 32 41 17 22 - - 0.0
29/09:00am 12.7 5.5 5.1 60 3.5 WNW 32 50 17 27 - - 0.0
29/08:32am 12.5 6.1 5.2 61 3.4 WNW 28 46 15 25 - - 0.0
29/08:30am 12.4 6.0 5.1 61 3.4 WNW 28 39 15 21 - - 0.0
29/08:00am 12.2 6.1 4.7 60 3.4 WNW 26 44 14 24 - - 0.0
29/07:30am 11.1 7.5 4.8 65 2.9 NNW 13 19 7 10 - - 0.0
29/07:00am 11.9 8.0 5.3 64 3.1 N 15 20 8 11 - - 0.0
29/06:30am 11.8 8.3 5.4 65 3.0 N 13 20 7 11 - - 0.0
29/06:00am 11.8 8.0 5.7 66 2.8 N 15 20 8 11 - - 0.0
29/05:30am 11.3 7.9 5.8 69 2.6 NNE 13 17 7 9 - - 0.0
29/05:00am 11.6 7.0 5.7 67 2.7 N 19 28 10 15 - - 0.0
29/04:30am 11.6 8.1 5.3 65 2.9 N 13 20 7 11 - - 0.0
29/04:00am 12.0 8.0 5.0 62 3.2 NW 15 26 8 14 - - 0.0
29/03:30am 12.1 7.8 5.3 63 3.1 NW 17 24 9 13 - - 0.0
29/03:00am 11.9 7.2 5.3 64 3.1 WNW 19 30 10 16 - - 0.0
29/02:30am 11.7 6.9 5.6 66 2.8 NW 20 32 11 17 - - 0.0
29/02:00am 11.8 6.6 5.4 65 3.0 NW 22 30 12 16 - - 0.0
29/01:30am 12.0 7.8 5.6 65 3.0 WNW 17 30 9 16 - - 0.0
29/01:00am 12.0 7.4 5.6 65 3.0 WNW 19 32 10 17 - - 0.0
29/12:30am 12.0 7.8 5.6 65 3.0 NW 17 26 9 14 - - 0.0
29/12:00am 11.6 8.2 5.7 67 2.7 NW 13 22 7 12 - - 0.0
 
Date/Time
EST
Temp
°C
App
Temp
°C
Dew
Point
Rel
Hum
%
Delta-T
°C
Wind Press
QNH
hPa
Press
MSL
hPa
Rain
since 9 am
mm
Dir
 
Spd
km/h
Gust
km/h
Spd
kts
Gust
kts
28/11:30pm 11.8 8.4 5.7 66 2.8 NW 13 26 7 14 - - 0.0
28/11:00pm 11.9 8.9 6.0 67 2.8 NNW 11 20 6 11 - - 0.0

Other Formats:

Comma delimited format used in spreadsheet applications
http://www.bom.gov.au/fwo/IDT60801/IDT60801.95972.axf

JavaScript Object Notation format (JSON) in row-major order
http://www.bom.gov.au/fwo/IDT60801/IDT60801.95972.json